createdAt,value
2022-10-13T00:00:05.550Z,11.88
2022-10-13T00:02:32.103Z,11.87
2022-10-13T00:05:00.923Z,11.50
2022-10-13T00:07:27.726Z,11.91
2022-10-13T00:09:54.591Z,11.93
2022-10-13T00:12:21.981Z,11.91
2022-10-13T00:14:48.628Z,11.71
2022-10-13T00:17:17.480Z,11.92
2022-10-13T00:19:44.051Z,11.92
2022-10-13T00:22:13.103Z,11.84
2022-10-13T00:24:42.131Z,11.98
2022-10-13T00:27:08.902Z,12.00
2022-10-13T00:29:35.702Z,11.90
2022-10-13T00:32:04.490Z,11.88
2022-10-13T00:34:31.995Z,12.01
2022-10-13T00:36:59.037Z,11.88
2022-10-13T00:39:28.870Z,11.97
2022-10-13T00:41:58.751Z,12.05
2022-10-13T00:45:03.098Z,12.05
2022-10-13T00:47:42.109Z,12.06
2022-10-13T00:50:13.403Z,12.10
2022-10-13T00:52:42.067Z,12.11
2022-10-13T00:55:13.673Z,12.08
2022-10-13T00:57:47.388Z,11.93
2022-10-13T01:00:14.730Z,12.10
2022-10-13T01:02:41.435Z,12.07
2022-10-13T01:05:08.622Z,12.07
2022-10-13T01:07:37.876Z,12.09
2022-10-13T01:10:05.012Z,12.07
2022-10-13T01:12:46.969Z,12.08
2022-10-13T01:15:21.750Z,12.03
2022-10-13T01:18:06.879Z,12.05
2022-10-13T01:20:36.240Z,12.03
2022-10-13T01:23:40.326Z,12.02
2022-10-13T01:26:28.391Z,12.04
2022-10-13T01:29:21.047Z,12.06
2022-10-13T01:32:22.619Z,12.08
2022-10-13T01:35:01.610Z,12.06
2022-10-13T01:37:55.950Z,11.88
2022-10-13T01:40:36.628Z,11.95
2022-10-13T01:43:10.594Z,11.84
2022-10-13T01:45:44.904Z,11.88
2022-10-13T01:48:11.812Z,11.80
2022-10-13T01:50:39.505Z,11.80
2022-10-13T01:53:07.495Z,12.12
2022-10-13T01:55:34.389Z,12.13
2022-10-13T01:58:00.979Z,12.14
2022-10-13T02:00:39.754Z,12.17
2022-10-13T02:03:44.957Z,12.10
2022-10-13T02:06:14.678Z,12.21
2022-10-13T02:08:58.348Z,12.21
2022-10-13T02:11:25.522Z,12.05
2022-10-13T02:14:18.473Z,12.23
2022-10-13T02:16:50.798Z,12.23
2022-10-13T02:19:18.932Z,12.24
2022-10-13T02:21:47.031Z,12.26
2022-10-13T02:24:14.008Z,12.24
2022-10-13T02:26:41.940Z,12.16
2022-10-13T02:29:13.131Z,12.24
2022-10-13T02:31:41.168Z,12.22
2022-10-13T02:34:07.870Z,11.97
2022-10-13T02:36:35.173Z,12.10
2022-10-13T02:39:02.016Z,12.27
2022-10-13T02:41:31.279Z,12.23
2022-10-13T02:44:00.369Z,12.29
2022-10-13T02:46:27.079Z,12.21
2022-10-13T02:48:54.653Z,12.31
2022-10-13T02:51:21.308Z,12.18
2022-10-13T02:53:47.929Z,12.20
2022-10-13T02:56:14.638Z,12.33
2022-10-13T02:58:41.275Z,12.38
2022-10-13T03:01:15.602Z,12.39
2022-10-13T03:03:42.399Z,12.34
2022-10-13T03:06:09.162Z,12.24
2022-10-13T03:08:36.286Z,12.40
2022-10-13T03:11:02.973Z,12.39
2022-10-13T03:13:32.063Z,12.18
2022-10-13T03:16:01.073Z,12.37
2022-10-13T03:18:27.860Z,12.34
2022-10-13T03:20:59.807Z,12.35
2022-10-13T03:23:29.079Z,12.29
2022-10-13T03:25:57.389Z,12.37
2022-10-13T03:28:24.051Z,12.37
2022-10-13T03:30:50.701Z,12.33
2022-10-13T03:33:17.382Z,12.27
2022-10-13T03:35:43.940Z,12.40
2022-10-13T03:38:13.157Z,12.41
2022-10-13T03:40:40.070Z,12.41
2022-10-13T03:43:06.614Z,12.39
2022-10-13T03:45:33.229Z,12.45
2022-10-13T03:48:02.261Z,12.43
2022-10-13T03:50:31.047Z,12.36
2022-10-13T03:52:58.181Z,12.52
2022-10-13T03:55:24.828Z,12.53
2022-10-13T03:57:51.469Z,12.54
2022-10-13T04:00:20.379Z,12.54
2022-10-13T04:02:49.557Z,12.37
2022-10-13T04:05:16.240Z,12.47
2022-10-13T04:07:42.997Z,12.55
2022-10-13T04:10:11.538Z,12.55
2022-10-13T04:12:38.368Z,12.40
2022-10-13T04:15:07.821Z,12.36
2022-10-13T04:17:34.419Z,12.56
2022-10-13T04:20:01.133Z,12.59
2022-10-13T04:22:27.880Z,12.59
2022-10-13T04:24:54.430Z,12.58
2022-10-13T04:27:23.583Z,12.59
2022-10-13T04:29:50.333Z,12.51
2022-10-13T04:32:19.491Z,12.54
2022-10-13T04:34:46.304Z,12.33
2022-10-13T04:37:15.659Z,12.51
2022-10-13T04:39:42.541Z,12.56
2022-10-13T04:42:11.283Z,12.56
2022-10-13T04:44:37.921Z,12.34
2022-10-13T04:47:04.710Z,12.37
2022-10-13T04:49:31.409Z,12.41
2022-10-13T04:51:58.205Z,12.32
2022-10-13T04:54:27.125Z,12.47
2022-10-13T04:56:56.491Z,12.51
2022-10-13T04:59:25.281Z,12.46
2022-10-13T05:01:54.414Z,12.42
2022-10-13T05:04:20.953Z,12.55
2022-10-13T05:07:16.422Z,12.53
2022-10-13T05:09:34.343Z,12.52
2022-10-13T05:12:03.426Z,12.48
2022-10-13T05:14:31.721Z,12.53
2022-10-13T05:16:58.367Z,12.31
2022-10-13T05:19:24.945Z,12.54
2022-10-13T05:21:51.537Z,12.57
2022-10-13T05:24:18.193Z,12.44
2022-10-13T05:26:44.850Z,12.60
2022-10-13T05:29:11.598Z,12.63
2022-10-13T05:31:40.589Z,12.53
2022-10-13T05:34:07.222Z,12.64
2022-10-13T05:36:36.891Z,12.55
2022-10-13T05:39:05.519Z,12.69
2022-10-13T05:41:35.179Z,12.53
2022-10-13T05:44:04.813Z,12.72
2022-10-13T05:46:31.605Z,12.72
2022-10-13T05:49:00.813Z,12.69
2022-10-13T05:51:32.310Z,12.71
2022-10-13T05:54:08.937Z,12.53
2022-10-13T05:56:41.637Z,12.50
2022-10-13T05:59:12.628Z,12.57
2022-10-13T06:01:42.812Z,12.69
2022-10-13T06:04:25.751Z,12.62
2022-10-13T06:06:53.024Z,12.72
2022-10-13T06:09:19.907Z,12.61
2022-10-13T06:11:46.566Z,12.72
2022-10-13T06:14:15.717Z,12.59
2022-10-13T06:16:42.356Z,12.56
2022-10-13T06:19:09.026Z,12.64
2022-10-13T06:21:35.844Z,12.81
2022-10-13T06:24:05.170Z,12.51
2022-10-13T06:26:32.841Z,12.84
2022-10-13T06:29:00.380Z,12.86
2022-10-13T06:31:29.816Z,12.68
2022-10-13T06:33:56.642Z,12.74
2022-10-13T06:36:24.206Z,12.86
2022-10-13T06:38:51.573Z,12.93
2022-10-13T06:41:18.670Z,12.94
2022-10-13T06:43:45.259Z,12.96
2022-10-13T06:46:12.578Z,12.76
2022-10-13T06:48:39.929Z,13.01
2022-10-13T06:51:09.893Z,13.02
2022-10-13T06:53:37.559Z,12.99
2022-10-13T06:56:06.746Z,13.07
2022-10-13T06:58:35.431Z,13.10
2022-10-13T07:01:02.442Z,13.10
2022-10-13T07:03:29.628Z,13.19
2022-10-13T07:06:06.586Z,13.27
2022-10-13T07:08:36.663Z,13.13
2022-10-13T07:11:12.946Z,13.26
2022-10-13T07:13:46.165Z,13.31
2022-10-13T07:16:14.859Z,13.35
2022-10-13T07:18:41.886Z,13.21
2022-10-13T07:21:08.779Z,13.25
2022-10-13T07:23:38.104Z,13.38
2022-10-13T07:26:14.355Z,13.37
2022-10-13T07:28:41.436Z,13.36
2022-10-13T07:31:25.426Z,13.33
2022-10-13T07:33:54.579Z,13.35
2022-10-13T07:36:21.140Z,13.23
2022-10-13T07:38:47.774Z,13.37
2022-10-13T07:41:14.928Z,13.25
2022-10-13T07:43:42.125Z,13.42
2022-10-13T07:46:10.359Z,13.40
2022-10-13T07:48:37.044Z,13.43
2022-10-13T07:51:08.648Z,13.46
2022-10-13T07:53:35.908Z,13.55
2022-10-13T07:56:04.470Z,13.60
2022-10-13T07:58:31.180Z,13.68
2022-10-13T08:00:59.660Z,13.73
2022-10-13T08:03:27.487Z,13.66
2022-10-13T08:05:54.745Z,13.89
2022-10-13T08:08:23.805Z,13.83
2022-10-13T08:10:50.558Z,14.07
2022-10-13T08:13:17.223Z,13.93
2022-10-13T08:15:45.204Z,14.20
2022-10-13T08:18:13.579Z,14.20
2022-10-13T08:20:45.250Z,14.19
2022-10-13T08:23:13.400Z,14.29
2022-10-13T08:25:44.071Z,14.32
2022-10-13T08:28:31.139Z,14.38
2022-10-13T08:30:58.072Z,14.30
2022-10-13T08:33:26.541Z,14.40
2022-10-13T08:35:53.819Z,14.79
2022-10-13T08:38:20.468Z,14.96
2022-10-13T08:40:51.658Z,15.13
2022-10-13T08:43:22.538Z,15.25
2022-10-13T08:45:52.060Z,15.22
2022-10-13T08:48:25.016Z,15.41
2022-10-13T08:50:55.762Z,15.48
2022-10-13T08:53:25.300Z,15.53
2022-10-13T08:55:59.789Z,15.26
2022-10-13T08:58:34.825Z,15.56
2022-10-13T09:01:13.791Z,15.64
2022-10-13T09:03:54.402Z,15.61
2022-10-13T09:06:28.647Z,15.57
2022-10-13T09:08:59.903Z,15.50
2022-10-13T09:11:54.336Z,15.47
2022-10-13T09:14:41.575Z,15.45
2022-10-13T09:17:18.748Z,15.44
2022-10-13T09:19:58.815Z,15.34
2022-10-13T09:22:38.718Z,15.45
2022-10-13T09:25:08.392Z,15.46
2022-10-13T09:27:42.825Z,15.34
2022-10-13T09:30:47.510Z,15.55
2022-10-13T09:33:22.057Z,15.62
2022-10-13T09:36:06.680Z,15.73
2022-10-13T09:38:34.706Z,15.68
2022-10-13T09:41:13.678Z,16.03
2022-10-13T09:43:59.849Z,16.14
2022-10-13T09:46:47.884Z,16.24
2022-10-13T09:49:34.903Z,16.29
2022-10-13T09:52:05.190Z,16.16
2022-10-13T09:54:41.118Z,16.23
2022-10-13T09:57:41.909Z,16.10
2022-10-13T10:00:28.550Z,15.95
2022-10-13T10:03:04.935Z,15.85
2022-10-13T10:05:41.868Z,15.72
2022-10-13T10:08:18.457Z,15.64
2022-10-13T10:10:45.514Z,15.55
2022-10-13T10:13:14.279Z,15.66
2022-10-13T10:15:53.838Z,15.33
2022-10-13T10:18:39.200Z,15.35
2022-10-13T10:21:26.768Z,15.30
2022-10-13T10:24:16.003Z,14.75
2022-10-13T10:26:57.770Z,15.07
2022-10-13T10:29:44.413Z,15.15
2022-10-13T10:32:37.922Z,15.10
2022-10-13T10:35:15.973Z,15.27
2022-10-13T10:37:51.448Z,15.48
2022-10-13T10:40:42.727Z,15.32
2022-10-13T10:43:21.559Z,15.32
2022-10-13T10:45:49.779Z,15.22
2022-10-13T10:48:33.671Z,15.34
2022-10-13T10:51:06.204Z,15.30
2022-10-13T10:53:54.291Z,15.30
2022-10-13T10:56:38.994Z,15.28
2022-10-13T10:59:49.850Z,15.26
2022-10-13T11:02:44.350Z,15.10
2022-10-13T11:05:14.923Z,15.11
2022-10-13T11:07:45.721Z,15.35
2022-10-13T11:10:18.335Z,15.39
2022-10-13T11:12:51.258Z,15.42
2022-10-13T11:15:27.559Z,15.46
2022-10-13T11:17:54.555Z,15.52
2022-10-13T11:20:21.052Z,15.58
2022-10-13T11:22:59.581Z,15.60
2022-10-13T11:25:40.042Z,15.63
2022-10-13T11:28:26.571Z,15.72
2022-10-13T11:30:55.577Z,15.75
2022-10-13T11:33:40.816Z,15.72
2022-10-13T11:36:58.766Z,15.71
2022-10-13T11:39:28.469Z,15.69
2022-10-13T11:42:36.844Z,15.68
2022-10-13T11:45:45.681Z,15.66
2022-10-13T11:48:47.750Z,15.75
2022-10-13T11:51:23.589Z,15.76
2022-10-13T11:53:59.831Z,15.75
2022-10-13T11:56:47.474Z,15.73
2022-10-13T11:59:45.505Z,15.76
2022-10-13T12:02:14.526Z,15.77
2022-10-13T12:04:46.796Z,15.79
2022-10-13T12:07:15.712Z,15.85
2022-10-13T12:09:54.788Z,15.88
2022-10-13T12:12:23.092Z,15.93
2022-10-13T12:14:55.628Z,15.91
2022-10-13T12:17:31.632Z,16.00
2022-10-13T12:20:01.346Z,16.04
2022-10-13T12:22:29.141Z,15.84
2022-10-13T12:25:04.827Z,15.92
2022-10-13T12:27:47.833Z,16.05
2022-10-13T12:30:37.114Z,16.04
2022-10-13T12:33:22.899Z,16.08
2022-10-13T12:35:49.835Z,16.10
2022-10-13T12:38:22.212Z,16.23
2022-10-13T12:40:50.553Z,16.30
2022-10-13T12:43:22.313Z,16.14
2022-10-13T12:45:49.396Z,16.11
2022-10-13T12:48:33.687Z,16.21
2022-10-13T12:51:17.311Z,16.18
2022-10-13T12:53:48.083Z,16.08
2022-10-13T12:56:30.941Z,16.12
2022-10-13T12:58:58.811Z,16.06
2022-10-13T13:01:35.604Z,16.03
2022-10-13T13:04:18.314Z,16.03
2022-10-13T13:06:56.795Z,16.01
2022-10-13T13:09:24.868Z,15.93
2022-10-13T13:12:26.682Z,15.94
2022-10-13T13:14:55.378Z,15.79
2022-10-13T13:17:56.741Z,15.90
2022-10-13T13:20:34.823Z,15.84
2022-10-13T13:23:01.606Z,15.83
2022-10-13T13:25:30.735Z,15.70
2022-10-13T13:27:57.400Z,15.62
2022-10-13T13:30:25.117Z,15.51
2022-10-13T13:32:52.514Z,15.34
2022-10-13T13:35:19.207Z,15.43
2022-10-13T13:37:51.694Z,15.28
2022-10-13T13:40:26.644Z,15.44
2022-10-13T13:42:58.438Z,15.46
2022-10-13T13:45:25.771Z,15.51
2022-10-13T13:47:54.892Z,15.61
2022-10-13T13:50:26.584Z,15.60
2022-10-13T13:52:53.247Z,15.64
2022-10-13T13:55:20.191Z,15.93
2022-10-13T13:57:47.202Z,16.05
2022-10-13T14:00:15.905Z,16.21
2022-10-13T14:02:43.741Z,16.30
2022-10-13T14:05:11.742Z,16.34
2022-10-13T14:07:39.337Z,16.23
2022-10-13T14:10:10.055Z,16.05
2022-10-13T14:12:36.974Z,16.41
2022-10-13T14:15:04.534Z,16.36
2022-10-13T14:17:31.419Z,16.17
2022-10-13T14:19:58.088Z,16.18
2022-10-13T14:22:25.476Z,16.11
2022-10-13T14:24:52.695Z,15.88
2022-10-13T14:27:19.328Z,15.92
2022-10-13T14:29:48.507Z,15.87
2022-10-13T14:32:17.597Z,15.72
2022-10-13T14:34:46.434Z,15.85
2022-10-13T14:37:13.496Z,15.78
2022-10-13T14:39:40.963Z,15.69
2022-10-13T14:42:07.656Z,15.71
2022-10-13T14:44:34.297Z,15.69
2022-10-13T14:47:01.106Z,15.84
2022-10-13T14:49:27.795Z,15.86
2022-10-13T14:51:54.569Z,15.83
2022-10-13T14:54:21.234Z,15.63
2022-10-13T14:56:48.026Z,15.81
2022-10-13T14:59:14.721Z,15.76
2022-10-13T15:01:43.259Z,15.76
2022-10-13T15:04:09.940Z,15.62
2022-10-13T15:06:39.407Z,15.72
2022-10-13T15:09:10.708Z,15.58
2022-10-13T15:11:37.468Z,15.60
2022-10-13T15:14:04.634Z,15.74
2022-10-13T15:16:37.094Z,15.74
2022-10-13T15:19:04.415Z,15.74
2022-10-13T15:21:31.051Z,15.76
2022-10-13T15:23:57.740Z,15.73
2022-10-13T15:26:26.612Z,15.61
2022-10-13T15:28:54.181Z,15.71
2022-10-13T15:31:22.332Z,15.56
2022-10-13T15:33:53.283Z,15.67
2022-10-13T15:36:21.763Z,15.65
2022-10-13T15:38:48.790Z,15.61
2022-10-13T15:41:18.705Z,15.43
2022-10-13T15:43:45.642Z,15.44
2022-10-13T15:46:21.217Z,15.56
2022-10-13T15:48:55.278Z,15.56
2022-10-13T15:51:27.313Z,15.56
2022-10-13T15:53:55.283Z,15.47
2022-10-13T15:56:22.421Z,15.47
2022-10-13T15:58:51.304Z,15.52
2022-10-13T16:01:18.094Z,15.50
2022-10-13T16:03:44.838Z,15.46
2022-10-13T16:06:12.696Z,15.48
2022-10-13T16:08:44.336Z,15.46
2022-10-13T16:11:13.766Z,15.43
2022-10-13T16:13:41.648Z,15.37
2022-10-13T16:16:08.889Z,15.35
2022-10-13T16:18:39.378Z,15.33
2022-10-13T16:21:14.417Z,15.36
2022-10-13T16:23:52.873Z,15.21
2022-10-13T16:26:19.522Z,15.31
2022-10-13T16:28:46.874Z,15.27
2022-10-13T16:31:17.453Z,15.23
2022-10-13T16:33:46.846Z,15.03
2022-10-13T16:36:18.405Z,15.15
2022-10-13T16:38:47.916Z,15.10
2022-10-13T16:41:17.439Z,15.09
2022-10-13T16:43:48.311Z,14.83
2022-10-13T16:46:19.550Z,15.04
2022-10-13T16:48:47.346Z,14.98
2022-10-13T16:51:20.809Z,14.98
2022-10-13T16:54:01.312Z,14.84
2022-10-13T16:56:31.179Z,14.95
2022-10-13T16:59:03.153Z,14.90
2022-10-13T17:01:31.145Z,14.94
2022-10-13T17:03:58.993Z,14.91
2022-10-13T17:06:27.791Z,14.91
2022-10-13T17:08:55.424Z,14.90
2022-10-13T17:11:25.467Z,14.87
2022-10-13T17:13:52.648Z,14.89
2022-10-13T17:16:22.446Z,14.83
2022-10-13T17:18:49.076Z,14.85
2022-10-13T17:21:17.935Z,14.81
2022-10-13T17:23:48.610Z,14.83
2022-10-13T17:26:17.256Z,14.83
2022-10-13T17:28:44.717Z,14.63
2022-10-13T17:31:17.743Z,14.80
2022-10-13T17:33:45.289Z,14.76
2022-10-13T17:36:19.590Z,14.78
2022-10-13T17:38:47.410Z,14.76
2022-10-13T17:41:16.544Z,14.52
2022-10-13T17:43:43.393Z,14.72
2022-10-13T17:49:03.113Z,14.72
2022-10-13T17:51:31.978Z,14.54
2022-10-13T17:54:00.816Z,14.51
2022-10-13T17:56:28.872Z,14.63
2022-10-13T17:58:58.858Z,14.61
2022-10-13T18:01:31.907Z,14.61
2022-10-13T18:04:08.541Z,14.57
2022-10-13T18:06:40.504Z,14.56
2022-10-13T18:09:11.419Z,14.54
2022-10-13T18:11:44.432Z,14.51
2022-10-13T18:14:15.612Z,14.34
2022-10-13T18:16:49.242Z,14.31
2022-10-13T18:19:15.792Z,14.43
2022-10-13T18:21:42.863Z,14.31
2022-10-13T18:24:09.912Z,14.25
2022-10-13T18:26:39.308Z,14.37
2022-10-13T18:29:07.633Z,14.11
2022-10-13T18:31:41.143Z,14.21
2022-10-13T18:34:11.988Z,14.16
2022-10-13T18:36:43.922Z,14.32
2022-10-13T18:39:13.891Z,14.16
2022-10-13T18:41:41.401Z,14.17
2022-10-13T18:44:09.200Z,14.29
2022-10-13T18:46:37.740Z,14.13
2022-10-13T18:49:05.973Z,13.97
2022-10-13T18:51:36.499Z,14.27
2022-10-13T18:54:05.891Z,14.20
2022-10-13T18:56:34.289Z,14.26
2022-10-13T18:59:02.096Z,14.09
2022-10-13T19:01:31.407Z,14.25
2022-10-13T19:03:58.491Z,14.22
2022-10-13T19:06:27.214Z,14.25
2022-10-13T19:09:00.785Z,14.23
2022-10-13T19:11:29.149Z,14.00
2022-10-13T19:13:56.322Z,13.98
2022-10-13T19:16:25.252Z,14.09
2022-10-13T19:18:52.477Z,14.13
2022-10-13T19:21:23.854Z,13.98
2022-10-13T19:23:51.003Z,14.12
2022-10-13T19:26:20.973Z,14.14
2022-10-13T19:28:52.968Z,14.15
2022-10-13T19:31:23.946Z,14.17
2022-10-13T19:33:52.585Z,14.06
2022-10-13T19:36:35.369Z,14.21
2022-10-13T19:39:06.690Z,14.15
2022-10-13T19:41:36.272Z,14.05
2022-10-13T19:44:03.275Z,14.14
2022-10-13T19:46:33.047Z,14.27
2022-10-13T19:49:00.241Z,14.26
2022-10-13T19:51:26.855Z,14.27
2022-10-13T19:53:53.537Z,14.20
2022-10-13T19:56:30.493Z,14.29
2022-10-13T19:58:58.048Z,14.22
2022-10-13T20:01:27.257Z,14.29
2022-10-13T20:03:56.401Z,14.10
2022-10-13T20:06:25.508Z,14.19
2022-10-13T20:08:52.110Z,14.22
2022-10-13T20:11:23.845Z,14.18
2022-10-13T20:13:52.413Z,14.19
2022-10-13T20:16:21.867Z,14.00
2022-10-13T20:18:57.250Z,14.01
2022-10-13T20:21:25.308Z,13.97
2022-10-13T20:23:52.349Z,14.08
2022-10-13T20:26:19.919Z,14.03
2022-10-13T20:28:48.798Z,13.80
2022-10-13T20:31:18.281Z,13.90
2022-10-13T20:33:45.004Z,13.71
2022-10-13T20:36:14.207Z,13.63
2022-10-13T20:38:41.393Z,13.74
2022-10-13T20:41:21.697Z,13.71
2022-10-13T20:43:49.284Z,13.71
2022-10-13T20:46:17.501Z,13.73
2022-10-13T20:49:09.867Z,13.75
2022-10-13T20:51:31.232Z,13.71
2022-10-13T20:53:58.134Z,13.74
2022-10-13T20:56:26.965Z,13.56
2022-10-13T20:58:54.509Z,13.73
2022-10-13T21:01:22.917Z,13.59
2022-10-13T21:03:53.863Z,13.74
2022-10-13T21:06:21.898Z,13.59
2022-10-13T21:08:51.317Z,13.58
2022-10-13T21:11:22.587Z,13.75
2022-10-13T21:13:50.618Z,13.63
2022-10-13T21:16:29.027Z,13.78
2022-10-13T21:18:57.420Z,13.72
2022-10-13T21:21:33.128Z,13.78
2022-10-13T21:24:05.395Z,13.78
2022-10-13T21:26:33.285Z,13.27
2022-10-13T21:29:01.235Z,13.75
2022-10-13T21:31:31.080Z,13.68
2022-10-13T21:33:57.899Z,13.61
2022-10-13T21:36:30.401Z,13.71
2022-10-13T21:39:04.456Z,13.70
2022-10-13T21:41:33.470Z,13.65
2022-10-13T21:44:00.101Z,13.64
2022-10-13T21:46:31.830Z,13.55
2022-10-13T21:49:01.430Z,13.40
2022-10-13T21:51:31.015Z,13.45
2022-10-13T21:54:00.329Z,13.40
2022-10-13T21:56:27.982Z,13.29
2022-10-13T21:58:56.101Z,13.24
2022-10-13T22:01:26.376Z,13.30
2022-10-13T22:04:00.094Z,13.26
2022-10-13T22:06:27.886Z,13.22
2022-10-13T22:08:56.497Z,13.21
2022-10-13T22:11:25.773Z,12.88
2022-10-13T22:13:58.263Z,13.21
2022-10-13T22:16:31.677Z,13.21
2022-10-13T22:18:58.676Z,13.21
2022-10-13T22:21:28.967Z,13.06
2022-10-13T22:24:05.211Z,13.23
2022-10-13T22:26:33.925Z,13.24
2022-10-13T22:29:08.116Z,13.12
2022-10-13T22:31:36.122Z,13.21
2022-10-13T22:34:03.709Z,13.28
2022-10-13T22:36:33.276Z,13.27
2022-10-13T22:39:02.792Z,13.25
2022-10-13T22:41:33.452Z,13.23
2022-10-13T22:44:03.228Z,13.13
2022-10-13T22:46:35.450Z,13.16
2022-10-13T22:49:06.473Z,12.93
2022-10-13T22:51:35.730Z,13.15
2022-10-13T22:54:02.755Z,13.15
2022-10-13T22:56:31.960Z,13.14
2022-10-13T22:59:04.903Z,13.15
2022-10-13T23:01:31.869Z,13.15
2022-10-13T23:03:59.405Z,13.15
2022-10-13T23:06:28.704Z,13.13
2022-10-13T23:08:55.756Z,13.12
2022-10-13T23:11:22.792Z,13.16
2022-10-13T23:13:49.773Z,13.17
2022-10-13T23:16:20.419Z,13.24
2022-10-13T23:18:47.446Z,13.27
2022-10-13T23:21:17.660Z,13.13
2022-10-13T23:23:45.332Z,13.34
2022-10-13T23:26:16.777Z,13.35
2022-10-13T23:28:46.031Z,13.24
2022-10-13T23:31:16.281Z,13.35
2022-10-13T23:33:45.872Z,13.23
2022-10-13T23:36:20.953Z,13.36
2022-10-13T23:38:48.209Z,13.38
2022-10-13T23:41:17.698Z,13.40
2022-10-13T23:43:44.560Z,13.44
2022-10-13T23:46:13.883Z,13.46
2022-10-13T23:48:43.521Z,13.47
2022-10-13T23:51:16.654Z,13.31
2022-10-13T23:53:43.493Z,13.32
2022-10-13T23:56:11.676Z,13.43
2022-10-13T23:58:42.632Z,13.48
